sensor_id;sensor_type;location;lat;lon;timestamp;pressure;altitude;pressure_sealevel;temperature;humidity
24390;BME280;12510;56.468;-3.004;2024-03-23T00:54:03;52349.97;;;-148.32;nan
24390;BME280;12510;56.468;-3.004;2024-03-23T00:56:30;52373.88;;;-148.32;nan
24390;BME280;12510;56.468;-3.004;2024-03-23T00:58:56;52441.56;;;-148.32;nan
24390;BME280;12510;56.468;-3.004;2024-03-23T01:01:22;52457.50;;;-148.32;nan
24390;BME280;12510;56.468;-3.004;2024-03-23T01:03:48;52391.78;;;-148.32;nan
24390;BME280;12510;56.468;-3.004;2024-03-23T01:06:14;52489.34;;;-148.32;nan
24390;BME280;12510;56.468;-3.004;2024-03-23T01:08:41;52455.50;;;-148.32;nan
24390;BME280;12510;56.468;-3.004;2024-03-23T01:11:07;52459.47;;;-148.32;nan
24390;BME280;12510;56.468;-3.004;2024-03-23T01:13:34;52393.78;;;-148.32;nan
24390;BME280;12510;56.468;-3.004;2024-03-23T01:16:00;52503.28;;;-148.32;nan
24390;BME280;12510;56.468;-3.004;2024-03-23T01:18:27;52549.06;;;-148.32;nan
24390;BME280;12510;56.468;-3.004;2024-03-23T01:20:54;52644.66;;;-148.32;nan
24390;BME280;12510;56.468;-3.004;2024-03-23T01:23:20;52632.69;;;-148.32;nan
24390;BME280;12510;56.468;-3.004;2024-03-23T01:25:52;52622.75;;;-148.32;nan
24390;BME280;12510;56.468;-3.004;2024-03-23T01:28:22;52576.94;;;-148.32;nan
24390;BME280;12510;56.468;-3.004;2024-03-23T01:30:49;52531.16;;;-148.32;nan
24390;BME280;12510;56.468;-3.004;2024-03-23T01:33:15;52527.16;;;-148.32;nan
24390;BME280;12510;56.468;-3.004;2024-03-23T01:35:42;52515.22;;;-148.32;nan
24390;BME280;12510;56.468;-3.004;2024-03-23T01:38:08;52513.25;;;-148.32;nan
24390;BME280;12510;56.468;-3.004;2024-03-23T01:40:34;52541.09;;;-148.32;nan
24390;BME280;12510;56.468;-3.004;2024-03-23T01:45:30;52899.50;;;-148.32;nan
24390;BME280;12510;56.468;-3.004;2024-03-23T01:47:56;53003.03;;;-148.32;nan
24390;BME280;12510;56.468;-3.004;2024-03-23T01:50:22;53018.97;;;-148.32;nan
24390;BME280;12510;56.468;-3.004;2024-03-23T01:52:50;53032.91;;;-148.32;nan
24390;BME280;12510;56.468;-3.004;2024-03-23T01:55:16;53034.91;;;-148.32;nan
24390;BME280;12510;56.468;-3.004;2024-03-23T01:57:42;53034.91;;;-148.32;nan
24390;BME280;12510;56.468;-3.004;2024-03-23T02:00:09;53064.78;;;-148.32;nan
24390;BME280;12510;56.468;-3.004;2024-03-23T02:02:42;53056.81;;;-148.32;nan
24390;BME280;12510;56.468;-3.004;2024-03-23T02:05:08;53058.81;;;-148.32;nan
24390;BME280;12510;56.468;-3.004;2024-03-23T02:07:34;53034.91;;;-148.32;nan
24390;BME280;12510;56.468;-3.004;2024-03-23T02:10:00;53054.81;;;-148.32;nan
24390;BME280;12510;56.468;-3.004;2024-03-23T02:12:27;53044.84;;;-148.32;nan
24390;BME280;12510;56.468;-3.004;2024-03-23T02:14:53;53028.94;;;-148.32;nan
24390;BME280;12510;56.468;-3.004;2024-03-23T02:17:19;53066.75;;;-148.32;nan
24390;BME280;12510;56.468;-3.004;2024-03-23T02:19:45;53038.88;;;-148.32;nan
24390;BME280;12510;56.468;-3.004;2024-03-23T02:22:12;52953.25;;;-148.32;nan
24390;BME280;12510;56.468;-3.004;2024-03-23T02:24:38;52815.88;;;-148.32;nan
24390;BME280;12510;56.468;-3.004;2024-03-23T02:27:05;52744.19;;;-148.32;nan
24390;BME280;12510;56.468;-3.004;2024-03-23T02:29:31;52756.13;;;-148.32;nan
24390;BME280;12510;56.468;-3.004;2024-03-23T02:31:58;52748.19;;;-148.32;nan
24390;BME280;12510;56.468;-3.004;2024-03-23T02:34:25;52791.97;;;-148.32;nan
24390;BME280;12510;56.468;-3.004;2024-03-23T02:36:51;52746.19;;;-148.32;nan
24390;BME280;12510;56.468;-3.004;2024-03-23T02:39:17;52774.06;;;-148.32;nan
24390;BME280;12510;56.468;-3.004;2024-03-23T02:41:44;52791.97;;;-148.32;nan
24390;BME280;12510;56.468;-3.004;2024-03-23T02:44:10;52770.09;;;-148.32;nan
24390;BME280;12510;56.468;-3.004;2024-03-23T02:46:38;52791.97;;;-148.32;nan
24390;BME280;12510;56.468;-3.004;2024-03-23T02:49:04;52770.09;;;-148.32;nan
24390;BME280;12510;56.468;-3.004;2024-03-23T02:51:30;52772.06;;;-148.32;nan
24390;BME280;12510;56.468;-3.004;2024-03-23T02:53:57;52756.13;;;-148.32;nan
24390;BME280;12510;56.468;-3.004;2024-03-23T02:56:23;52744.19;;;-148.32;nan
24390;BME280;12510;56.468;-3.004;2024-03-23T02:58:49;52744.19;;;-148.32;nan
24390;BME280;12510;56.468;-3.004;2024-03-23T03:01:15;52803.94;;;-148.32;nan
24390;BME280;12510;56.468;-3.004;2024-03-23T03:03:41;52786.00;;;-148.32;nan
24390;BME280;12510;56.468;-3.004;2024-03-23T03:06:08;52780.03;;;-148.32;nan
24390;BME280;12510;56.468;-3.004;2024-03-23T03:08:34;52786.00;;;-148.32;nan
24390;BME280;12510;56.468;-3.004;2024-03-23T03:11:00;52752.16;;;-148.32;nan
24390;BME280;12510;56.468;-3.004;2024-03-23T03:13:26;52752.16;;;-148.32;nan
24390;BME280;12510;56.468;-3.004;2024-03-23T03:15:53;52758.13;;;-148.32;nan
24390;BME280;12510;56.468;-3.004;2024-03-23T03:18:19;52760.13;;;-148.32;nan
24390;BME280;12510;56.468;-3.004;2024-03-23T03:20:47;52772.06;;;-148.32;nan
24390;BME280;12510;56.468;-3.004;2024-03-23T03:23:13;52762.13;;;-148.32;nan
24390;BME280;12510;56.468;-3.004;2024-03-23T03:25:39;52736.22;;;-148.32;nan
24390;BME280;12510;56.468;-3.004;2024-03-23T03:28:05;52768.09;;;-148.32;nan
24390;BME280;12510;56.468;-3.004;2024-03-23T03:30:31;52754.16;;;-148.32;nan
24390;BME280;12510;56.468;-3.004;2024-03-23T03:32:58;52738.22;;;-148.32;nan
24390;BME280;12510;56.468;-3.004;2024-03-23T03:35:24;52724.28;;;-148.32;nan
24390;BME280;12510;56.468;-3.004;2024-03-23T03:37:50;52726.28;;;-148.32;nan
24390;BME280;12510;56.468;-3.004;2024-03-23T03:40:16;52702.38;;;-148.32;nan
24390;BME280;12510;56.468;-3.004;2024-03-23T03:42:42;52744.19;;;-148.32;nan
24390;BME280;12510;56.468;-3.004;2024-03-23T03:45:09;52734.25;;;-148.32;nan
24390;BME280;12510;56.468;-3.004;2024-03-23T03:47:35;52718.31;;;-148.32;nan
24390;BME280;12510;56.468;-3.004;2024-03-23T03:50:01;52712.34;;;-148.32;nan
24390;BME280;12510;56.468;-3.004;2024-03-23T03:52:27;52666.53;;;-148.32;nan
24390;BME280;12510;56.468;-3.004;2024-03-23T03:54:55;52642.66;;;-148.32;nan
24390;BME280;12510;56.468;-3.004;2024-03-23T03:57:21;52638.66;;;-148.32;nan
24390;BME280;12510;56.468;-3.004;2024-03-23T03:59:47;52638.66;;;-148.32;nan
24390;BME280;12510;56.468;-3.004;2024-03-23T04:02:16;52594.88;;;-148.32;nan
24390;BME280;12510;56.468;-3.004;2024-03-23T04:04:42;52652.59;;;-148.32;nan
24390;BME280;12510;56.468;-3.004;2024-03-23T04:07:08;52696.41;;;-148.32;nan
24390;BME280;12510;56.468;-3.004;2024-03-23T04:09:36;52678.50;;;-148.32;nan
24390;BME280;12510;56.468;-3.004;2024-03-23T04:12:02;52692.44;;;-148.32;nan
24390;BME280;12510;56.468;-3.004;2024-03-23T04:14:28;52684.47;;;-148.32;nan
24390;BME280;12510;56.468;-3.004;2024-03-23T04:16:55;52632.69;;;-148.32;nan
24390;BME280;12510;56.468;-3.004;2024-03-23T04:19:21;52648.63;;;-148.32;nan
24390;BME280;12510;56.468;-3.004;2024-03-23T04:21:47;52660.56;;;-148.32;nan
24390;BME280;12510;56.468;-3.004;2024-03-23T04:24:13;52620.75;;;-148.32;nan
24390;BME280;12510;56.468;-3.004;2024-03-23T04:26:41;52622.75;;;-148.32;nan
24390;BME280;12510;56.468;-3.004;2024-03-23T04:29:07;52664.56;;;-148.32;nan
24390;BME280;12510;56.468;-3.004;2024-03-23T04:31:34;52676.50;;;-148.32;nan
24390;BME280;12510;56.468;-3.004;2024-03-23T04:34:03;52680.47;;;-148.32;nan
24390;BME280;12510;56.468;-3.004;2024-03-23T04:36:30;52712.34;;;-148.32;nan
24390;BME280;12510;56.468;-3.004;2024-03-23T04:38:56;52660.56;;;-148.32;nan
24390;BME280;12510;56.468;-3.004;2024-03-23T04:41:22;52600.84;;;-148.32;nan
24390;BME280;12510;56.468;-3.004;2024-03-23T04:43:49;52604.81;;;-148.32;nan
24390;BME280;12510;56.468;-3.004;2024-03-23T04:46:15;52656.59;;;-148.32;nan
24390;BME280;12510;56.468;-3.004;2024-03-23T04:48:41;52682.47;;;-148.32;nan
24390;BME280;12510;56.468;-3.004;2024-03-23T04:51:10;52622.75;;;-148.32;nan
24390;BME280;12510;56.468;-3.004;2024-03-23T04:53:38;52620.75;;;-148.32;nan
24390;BME280;12510;56.468;-3.004;2024-03-23T04:56:04;52547.09;;;-148.32;nan
24390;BME280;12510;56.468;-3.004;2024-03-23T04:58:30;52563.00;;;-148.32;nan
24390;BME280;12510;56.468;-3.004;2024-03-23T05:00:57;52584.91;;;-148.32;nan
24390;BME280;12510;56.468;-3.004;2024-03-23T05:03:23;52501.28;;;-148.32;nan
24390;BME280;12510;56.468;-3.004;2024-03-23T05:05:50;52529.16;;;-148.32;nan
24390;BME280;12510;56.468;-3.004;2024-03-23T05:08:17;52545.09;;;-148.32;nan
24390;BME280;12510;56.468;-3.004;2024-03-23T05:10:43;52515.22;;;-148.32;nan
24390;BME280;12510;56.468;-3.004;2024-03-23T05:13:09;52515.22;;;-148.32;nan
24390;BME280;12510;56.468;-3.004;2024-03-23T05:15:35;52547.09;;;-148.32;nan
24390;BME280;12510;56.468;-3.004;2024-03-23T05:18:02;52547.09;;;-148.32;nan
24390;BME280;12510;56.468;-3.004;2024-03-23T05:20:29;52576.94;;;-148.32;nan
24390;BME280;12510;56.468;-3.004;2024-03-23T05:22:55;52580.94;;;-148.32;nan
24390;BME280;12510;56.468;-3.004;2024-03-23T05:25:21;52582.91;;;-148.32;nan
24390;BME280;12510;56.468;-3.004;2024-03-23T05:27:48;52568.97;;;-148.32;nan
24390;BME280;12510;56.468;-3.004;2024-03-23T05:30:15;52640.66;;;-148.32;nan
24390;BME280;12510;56.468;-3.004;2024-03-23T05:32:41;52572.97;;;-148.32;nan
24390;BME280;12510;56.468;-3.004;2024-03-23T05:35:09;52545.09;;;-148.32;nan
24390;BME280;12510;56.468;-3.004;2024-03-23T05:37:38;52598.84;;;-148.32;nan
24390;BME280;12510;56.468;-3.004;2024-03-23T05:40:04;52620.75;;;-148.32;nan
24390;BME280;12510;56.468;-3.004;2024-03-23T05:42:31;52616.78;;;-148.32;nan
24390;BME280;12510;56.468;-3.004;2024-03-23T05:44:57;52622.75;;;-148.32;nan
24390;BME280;12510;56.468;-3.004;2024-03-23T05:47:23;52658.56;;;-148.32;nan
24390;BME280;12510;56.468;-3.004;2024-03-23T05:49:49;52680.47;;;-148.32;nan
24390;BME280;12510;56.468;-3.004;2024-03-23T05:52:17;52658.56;;;-148.32;nan
24390;BME280;12510;56.468;-3.004;2024-03-23T05:54:45;52670.53;;;-148.32;nan
24390;BME280;12510;56.468;-3.004;2024-03-23T05:57:11;52666.53;;;-148.32;nan
24390;BME280;12510;56.468;-3.004;2024-03-23T05:59:38;52668.53;;;-148.32;nan
24390;BME280;12510;56.468;-3.004;2024-03-23T06:02:04;52680.47;;;-148.32;nan
24390;BME280;12510;56.468;-3.004;2024-03-23T06:04:31;52684.47;;;-148.32;nan
24390;BME280;12510;56.468;-3.004;2024-03-23T06:06:58;52718.31;;;-148.32;nan
24390;BME280;12510;56.468;-3.004;2024-03-23T06:09:24;52716.31;;;-148.32;nan
24390;BME280;12510;56.468;-3.004;2024-03-23T06:11:52;52716.31;;;-148.32;nan
24390;BME280;12510;56.468;-3.004;2024-03-23T06:14:18;52716.31;;;-148.32;nan
24390;BME280;12510;56.468;-3.004;2024-03-23T06:16:45;52710.34;;;-148.32;nan
24390;BME280;12510;56.468;-3.004;2024-03-23T06:19:11;52734.25;;;-148.32;nan
24390;BME280;12510;56.468;-3.004;2024-03-23T06:21:37;52742.19;;;-148.32;nan
24390;BME280;12510;56.468;-3.004;2024-03-23T06:24:03;52728.25;;;-148.32;nan
24390;BME280;12510;56.468;-3.004;2024-03-23T06:26:30;52732.25;;;-148.32;nan
24390;BME280;12510;56.468;-3.004;2024-03-23T06:28:57;52760.13;;;-148.32;nan
24390;BME280;12510;56.468;-3.004;2024-03-23T06:31:23;52772.06;;;-148.32;nan
24390;BME280;12510;56.468;-3.004;2024-03-23T06:33:49;52799.94;;;-148.32;nan
24390;BME280;12510;56.468;-3.004;2024-03-23T06:36:16;52772.06;;;-148.32;nan
24390;BME280;12510;56.468;-3.004;2024-03-23T06:38:42;52774.06;;;-148.32;nan
24390;BME280;12510;56.468;-3.004;2024-03-23T06:41:09;52784.03;;;-148.32;nan
24390;BME280;12510;56.468;-3.004;2024-03-23T06:43:35;52780.03;;;-148.32;nan
24390;BME280;12510;56.468;-3.004;2024-03-23T06:46:03;52770.09;;;-148.32;nan
24390;BME280;12510;56.468;-3.004;2024-03-23T06:48:30;52770.09;;;-148.32;nan
24390;BME280;12510;56.468;-3.004;2024-03-23T06:50:56;52788.00;;;-148.32;nan
24390;BME280;12510;56.468;-3.004;2024-03-23T06:53:23;52809.91;;;-148.32;nan
24390;BME280;12510;56.468;-3.004;2024-03-23T06:55:50;52799.94;;;-148.32;nan
24390;BME280;12510;56.468;-3.004;2024-03-23T06:58:16;52791.97;;;-148.32;nan
24390;BME280;12510;56.468;-3.004;2024-03-23T07:00:43;52768.09;;;-148.32;nan
24390;BME280;12510;56.468;-3.004;2024-03-23T07:03:09;52778.03;;;-148.32;nan
24390;BME280;12510;56.468;-3.004;2024-03-23T07:05:35;52778.03;;;-148.32;nan
24390;BME280;12510;56.468;-3.004;2024-03-23T07:08:01;52803.94;;;-148.32;nan
24390;BME280;12510;56.468;-3.004;2024-03-23T07:10:27;52799.94;;;-148.32;nan
24390;BME280;12510;56.468;-3.004;2024-03-23T07:12:53;52815.88;;;-148.32;nan
24390;BME280;12510;56.468;-3.004;2024-03-23T07:15:20;52819.84;;;-148.32;nan
24390;BME280;12510;56.468;-3.004;2024-03-23T07:17:47;52823.84;;;-148.32;nan
24390;BME280;12510;56.468;-3.004;2024-03-23T07:20:13;52807.91;;;-148.32;nan
24390;BME280;12510;56.468;-3.004;2024-03-23T07:22:39;52843.75;;;-148.32;nan
24390;BME280;12510;56.468;-3.004;2024-03-23T07:25:06;52855.69;;;-148.32;nan
24390;BME280;12510;56.468;-3.004;2024-03-23T07:27:32;52871.63;;;-148.32;nan
24390;BME280;12510;56.468;-3.004;2024-03-23T07:29:59;52877.59;;;-148.32;nan
24390;BME280;12510;56.468;-3.004;2024-03-23T07:32:27;52835.78;;;-148.32;nan
24390;BME280;12510;56.468;-3.004;2024-03-23T07:34:53;52915.44;;;-148.32;nan
24390;BME280;12510;56.468;-3.004;2024-03-23T07:37:19;52919.41;;;-148.32;nan
24390;BME280;12510;56.468;-3.004;2024-03-23T07:39:45;52891.53;;;-148.32;nan
24390;BME280;12510;56.468;-3.004;2024-03-23T07:42:11;52919.41;;;-148.32;nan
24390;BME280;12510;56.468;-3.004;2024-03-23T07:44:38;52915.44;;;-148.32;nan
24390;BME280;12510;56.468;-3.004;2024-03-23T07:47:04;52931.38;;;-148.32;nan
24390;BME280;12510;56.468;-3.004;2024-03-23T07:49:33;52919.41;;;-148.32;nan
24390;BME280;12510;56.468;-3.004;2024-03-23T07:51:59;52937.34;;;-148.32;nan
24390;BME280;12510;56.468;-3.004;2024-03-23T07:54:25;52921.41;;;-148.32;nan
24390;BME280;12510;56.468;-3.004;2024-03-23T07:56:52;52935.34;;;-148.32;nan
24390;BME280;12510;56.468;-3.004;2024-03-23T07:59:18;52955.25;;;-148.32;nan
24390;BME280;12510;56.468;-3.004;2024-03-23T08:01:45;52951.28;;;-148.32;nan
24390;BME280;12510;56.468;-3.004;2024-03-23T08:04:11;52951.28;;;-148.32;nan
24390;BME280;12510;56.468;-3.004;2024-03-23T08:06:37;52931.38;;;-148.32;nan
24390;BME280;12510;56.468;-3.004;2024-03-23T08:09:04;52959.25;;;-148.32;nan
24390;BME280;12510;56.468;-3.004;2024-03-23T08:11:31;52941.31;;;-148.32;nan
24390;BME280;12510;56.468;-3.004;2024-03-23T08:13:57;52959.25;;;-148.32;nan
24390;BME280;12510;56.468;-3.004;2024-03-23T08:16:24;52943.31;;;-148.32;nan
24390;BME280;12510;56.468;-3.004;2024-03-23T08:18:53;52957.25;;;-148.32;nan
24390;BME280;12510;56.468;-3.004;2024-03-23T08:21:22;52949.28;;;-148.32;nan
24390;BME280;12510;56.468;-3.004;2024-03-23T08:23:48;52987.13;;;-148.32;nan
24390;BME280;12510;56.468;-3.004;2024-03-23T08:26:16;52967.19;;;-148.32;nan
24390;BME280;12510;56.468;-3.004;2024-03-23T08:28:45;52935.34;;;-148.32;nan
24390;BME280;12510;56.468;-3.004;2024-03-23T08:31:11;52955.25;;;-148.32;nan
24390;BME280;12510;56.468;-3.004;2024-03-23T08:33:39;52959.25;;;-148.32;nan
24390;BME280;12510;56.468;-3.004;2024-03-23T08:36:07;52949.28;;;-148.32;nan
24390;BME280;12510;56.468;-3.004;2024-03-23T08:38:35;52921.41;;;-148.32;nan
24390;BME280;12510;56.468;-3.004;2024-03-23T08:41:01;52939.31;;;-148.32;nan
24390;BME280;12510;56.468;-3.004;2024-03-23T08:43:32;52923.41;;;-148.32;nan
24390;BME280;12510;56.468;-3.004;2024-03-23T08:46:05;52935.34;;;-148.32;nan
24390;BME280;12510;56.468;-3.004;2024-03-23T08:48:42;52951.28;;;-148.32;nan
24390;BME280;12510;56.468;-3.004;2024-03-23T08:51:12;52947.28;;;-148.32;nan
24390;BME280;12510;56.468;-3.004;2024-03-23T08:53:38;52935.34;;;-148.32;nan
24390;BME280;12510;56.468;-3.004;2024-03-23T08:56:06;52927.38;;;-148.32;nan
24390;BME280;12510;56.468;-3.004;2024-03-23T08:58:33;52951.28;;;-148.32;nan
24390;BME280;12510;56.468;-3.004;2024-03-23T09:01:09;52931.38;;;-148.32;nan
24390;BME280;12510;56.468;-3.004;2024-03-23T09:03:35;52929.38;;;-148.32;nan
24390;BME280;12510;56.468;-3.004;2024-03-23T09:06:02;52949.28;;;-148.32;nan
24390;BME280;12510;56.468;-3.004;2024-03-23T09:08:28;52951.28;;;-148.32;nan
24390;BME280;12510;56.468;-3.004;2024-03-23T09:10:55;52925.38;;;-148.32;nan
24390;BME280;12510;56.468;-3.004;2024-03-23T09:13:21;52955.25;;;-148.32;nan
24390;BME280;12510;56.468;-3.004;2024-03-23T09:15:49;52951.28;;;-148.32;nan
24390;BME280;12510;56.468;-3.004;2024-03-23T09:18:17;52949.28;;;-148.32;nan
24390;BME280;12510;56.468;-3.004;2024-03-23T09:20:43;52937.34;;;-148.32;nan
24390;BME280;12510;56.468;-3.004;2024-03-23T09:23:09;52967.19;;;-148.32;nan
24390;BME280;12510;56.468;-3.004;2024-03-23T09:25:37;52963.22;;;-148.32;nan
24390;BME280;12510;56.468;-3.004;2024-03-23T09:28:04;52959.25;;;-148.32;nan
24390;BME280;12510;56.468;-3.004;2024-03-23T09:30:33;52983.13;;;-148.32;nan
24390;BME280;12510;56.468;-3.004;2024-03-23T09:33:02;52999.06;;;-148.32;nan
24390;BME280;12510;56.468;-3.004;2024-03-23T09:35:28;53005.03;;;-148.32;nan
24390;BME280;12510;56.468;-3.004;2024-03-23T09:37:55;52987.13;;;-148.32;nan
24390;BME280;12510;56.468;-3.004;2024-03-23T09:40:21;53022.97;;;-148.32;nan
24390;BME280;12510;56.468;-3.004;2024-03-23T09:42:52;53022.97;;;-148.32;nan
24390;BME280;12510;56.468;-3.004;2024-03-23T09:45:23;53040.88;;;-148.32;nan
24390;BME280;12510;56.468;-3.004;2024-03-23T09:47:52;53070.75;;;-148.32;nan
24390;BME280;12510;56.468;-3.004;2024-03-23T09:50:18;53058.81;;;-148.32;nan
24390;BME280;12510;56.468;-3.004;2024-03-23T09:52:48;53068.75;;;-148.32;nan
24390;BME280;12510;56.468;-3.004;2024-03-23T09:55:14;53084.69;;;-148.32;nan
24390;BME280;12510;56.468;-3.004;2024-03-23T09:57:59;53074.72;;;-148.32;nan
24390;BME280;12510;56.468;-3.004;2024-03-23T10:00:53;53082.69;;;-148.32;nan
24390;BME280;12510;56.468;-3.004;2024-03-23T10:03:20;53082.69;;;-148.32;nan
24390;BME280;12510;56.468;-3.004;2024-03-23T10:05:46;53070.75;;;-148.32;nan
24390;BME280;12510;56.468;-3.004;2024-03-23T10:10:39;53084.69;;;-148.32;nan
24390;BME280;12510;56.468;-3.004;2024-03-23T10:13:09;53086.69;;;-148.32;nan
24390;BME280;12510;56.468;-3.004;2024-03-23T10:15:36;53088.66;;;-148.32;nan
24390;BME280;12510;56.468;-3.004;2024-03-23T10:18:18;53074.72;;;-148.32;nan
24390;BME280;12510;56.468;-3.004;2024-03-23T10:20:50;53106.59;;;-148.32;nan
24390;BME280;12510;56.468;-3.004;2024-03-23T10:23:17;53110.56;;;-148.32;nan
24390;BME280;12510;56.468;-3.004;2024-03-23T10:25:44;53094.63;;;-148.32;nan
24390;BME280;12510;56.468;-3.004;2024-03-23T10:28:11;53102.59;;;-148.32;nan
24390;BME280;12510;56.468;-3.004;2024-03-23T10:30:38;53074.72;;;-148.32;nan
24390;BME280;12510;56.468;-3.004;2024-03-23T10:33:08;53092.66;;;-148.32;nan
24390;BME280;12510;56.468;-3.004;2024-03-23T10:35:34;53094.63;;;-148.32;nan
24390;BME280;12510;56.468;-3.004;2024-03-23T10:44:03;53110.56;;;-148.32;nan
24390;BME280;12510;56.468;-3.004;2024-03-23T10:46:31;53110.56;;;-148.32;nan
24390;BME280;12510;56.468;-3.004;2024-03-23T10:48:57;53088.66;;;-148.32;nan
24390;BME280;12510;56.468;-3.004;2024-03-23T10:51:24;53074.72;;;-148.32;nan
24390;BME280;12510;56.468;-3.004;2024-03-23T10:53:55;53090.66;;;-148.32;nan
24390;BME280;12510;56.468;-3.004;2024-03-23T10:56:22;53078.72;;;-148.32;nan
24390;BME280;12510;56.468;-3.004;2024-03-23T10:58:49;53090.66;;;-148.32;nan
24390;BME280;12510;56.468;-3.004;2024-03-23T11:01:21;53082.69;;;-148.32;nan
24390;BME280;12510;56.468;-3.004;2024-03-23T11:03:48;53104.59;;;-148.32;nan
24390;BME280;12510;56.468;-3.004;2024-03-23T11:06:34;53090.66;;;-148.32;nan
24390;BME280;12510;56.468;-3.004;2024-03-23T11:09:02;53122.53;;;-148.32;nan
24390;BME280;12510;56.468;-3.004;2024-03-23T11:11:30;53092.66;;;-148.32;nan
24390;BME280;12510;56.468;-3.004;2024-03-23T11:13:58;53116.53;;;-148.32;nan
24390;BME280;12510;56.468;-3.004;2024-03-23T11:16:29;53098.63;;;-148.32;nan
24390;BME280;12510;56.468;-3.004;2024-03-23T11:19:42;53102.59;;;-148.32;nan
24390;BME280;12510;56.468;-3.004;2024-03-23T11:21:52;53138.44;;;-148.32;nan
24390;BME280;12510;56.468;-3.004;2024-03-23T11:24:20;53094.63;;;-148.32;nan
24390;BME280;12510;56.468;-3.004;2024-03-23T11:26:51;53090.66;;;-148.32;nan
24390;BME280;12510;56.468;-3.004;2024-03-23T11:29:18;53110.56;;;-148.32;nan
24390;BME280;12510;56.468;-3.004;2024-03-23T11:31:49;53114.56;;;-148.32;nan
24390;BME280;12510;56.468;-3.004;2024-03-23T11:37:14;53098.63;;;-148.32;nan
24390;BME280;12510;56.468;-3.004;2024-03-23T11:39:47;53080.69;;;-148.32;nan
24390;BME280;12510;56.468;-3.004;2024-03-23T11:42:16;53086.69;;;-148.32;nan
24390;BME280;12510;56.468;-3.004;2024-03-23T11:44:43;53086.69;;;-148.32;nan
24390;BME280;12510;56.468;-3.004;2024-03-23T11:47:09;53118.53;;;-148.32;nan
24390;BME280;12510;56.468;-3.004;2024-03-23T11:49:40;53086.69;;;-148.32;nan
24390;BME280;12510;56.468;-3.004;2024-03-23T11:55:11;53132.47;;;-148.32;nan
24390;BME280;12510;56.468;-3.004;2024-03-23T11:57:38;53090.66;;;-148.32;nan
24390;BME280;12510;56.468;-3.004;2024-03-23T12:00:19;53112.56;;;-148.32;nan
24390;BME280;12510;56.468;-3.004;2024-03-23T12:02:46;53116.53;;;-148.32;nan
24390;BME280;12510;56.468;-3.004;2024-03-23T12:11:19;53102.59;;;-148.32;nan
24390;BME280;12510;56.468;-3.004;2024-03-23T12:17:15;53102.59;;;-148.32;nan
24390;BME280;12510;56.468;-3.004;2024-03-23T12:19:43;53104.59;;;-148.32;nan
24390;BME280;12510;56.468;-3.004;2024-03-23T12:22:11;53098.63;;;-148.32;nan
24390;BME280;12510;56.468;-3.004;2024-03-23T12:24:39;53092.66;;;-148.32;nan
24390;BME280;12510;56.468;-3.004;2024-03-23T12:27:10;53098.63;;;-148.32;nan
24390;BME280;12510;56.468;-3.004;2024-03-23T12:29:37;53098.63;;;-148.32;nan
24390;BME280;12510;56.468;-3.004;2024-03-23T12:32:07;53082.69;;;-148.32;nan
24390;BME280;12510;56.468;-3.004;2024-03-23T12:34:35;53122.53;;;-148.32;nan
24390;BME280;12510;56.468;-3.004;2024-03-23T12:37:02;53108.59;;;-148.32;nan
24390;BME280;12510;56.468;-3.004;2024-03-23T12:39:28;53088.66;;;-148.32;nan
24390;BME280;12510;56.468;-3.004;2024-03-23T12:41:57;53126.50;;;-148.32;nan
24390;BME280;12510;56.468;-3.004;2024-03-23T12:44:23;53102.59;;;-148.32;nan
24390;BME280;12510;56.468;-3.004;2024-03-23T12:46:50;53094.63;;;-148.32;nan
24390;BME280;12510;56.468;-3.004;2024-03-23T12:49:16;53096.63;;;-148.32;nan
24390;BME280;12510;56.468;-3.004;2024-03-23T12:51:47;53128.50;;;-148.32;nan
24390;BME280;12510;56.468;-3.004;2024-03-23T12:54:14;53126.50;;;-148.32;nan
24390;BME280;12510;56.468;-3.004;2024-03-23T12:56:41;53136.47;;;-148.32;nan
24390;BME280;12510;56.468;-3.004;2024-03-23T12:59:09;53140.44;;;-148.32;nan
24390;BME280;12510;56.468;-3.004;2024-03-23T13:01:35;53116.53;;;-148.32;nan
24390;BME280;12510;56.468;-3.004;2024-03-23T13:04:01;53116.53;;;-148.32;nan
24390;BME280;12510;56.468;-3.004;2024-03-23T13:06:29;53124.50;;;-148.32;nan
24390;BME280;12510;56.468;-3.004;2024-03-23T13:09:03;53122.53;;;-148.32;nan
24390;BME280;12510;56.468;-3.004;2024-03-23T13:11:32;53122.53;;;-148.32;nan
24390;BME280;12510;56.468;-3.004;2024-03-23T13:13:58;53102.59;;;-148.32;nan
24390;BME280;12510;56.468;-3.004;2024-03-23T13:16:24;53126.50;;;-148.32;nan
24390;BME280;12510;56.468;-3.004;2024-03-23T13:18:51;53100.63;;;-148.32;nan
24390;BME280;12510;56.468;-3.004;2024-03-23T13:21:18;53112.56;;;-148.32;nan
24390;BME280;12510;56.468;-3.004;2024-03-23T13:23:47;53108.59;;;-148.32;nan
24390;BME280;12510;56.468;-3.004;2024-03-23T13:26:14;53106.59;;;-148.32;nan
24390;BME280;12510;56.468;-3.004;2024-03-23T13:31:40;53072.75;;;-148.32;nan
24390;BME280;12510;56.468;-3.004;2024-03-23T13:34:07;53082.69;;;-148.32;nan
24390;BME280;12510;56.468;-3.004;2024-03-23T13:36:33;53078.72;;;-148.32;nan
24390;BME280;12510;56.468;-3.004;2024-03-23T13:39:00;53060.78;;;-148.32;nan
24390;BME280;12510;56.468;-3.004;2024-03-23T13:41:26;53110.56;;;-148.32;nan
24390;BME280;12510;56.468;-3.004;2024-03-23T13:43:54;53104.59;;;-148.32;nan
24390;BME280;12510;56.468;-3.004;2024-03-23T13:46:20;53086.69;;;-148.32;nan
24390;BME280;12510;56.468;-3.004;2024-03-23T13:48:50;53100.63;;;-148.32;nan
24390;BME280;12510;56.468;-3.004;2024-03-23T13:51:22;53096.63;;;-148.32;nan
24390;BME280;12510;56.468;-3.004;2024-03-23T13:53:49;53096.63;;;-148.32;nan
24390;BME280;12510;56.468;-3.004;2024-03-23T13:56:16;53118.53;;;-148.32;nan
24390;BME280;12510;56.468;-3.004;2024-03-23T13:58:43;53088.66;;;-148.32;nan
24390;BME280;12510;56.468;-3.004;2024-03-23T14:01:13;53128.50;;;-148.32;nan
24390;BME280;12510;56.468;-3.004;2024-03-23T14:03:39;53102.59;;;-148.32;nan
24390;BME280;12510;56.468;-3.004;2024-03-23T14:06:08;53110.56;;;-148.32;nan
24390;BME280;12510;56.468;-3.004;2024-03-23T14:08:35;53134.47;;;-148.32;nan
24390;BME280;12510;56.468;-3.004;2024-03-23T14:11:02;53134.47;;;-148.32;nan
24390;BME280;12510;56.468;-3.004;2024-03-23T14:13:29;53108.59;;;-148.32;nan